sensor_id;sensor_type;location;lat;lon;timestamp;temperature;humidity
26186;DHT22;20067;48.764;9.176;2023-07-02T00:01:45;18.60;91.30
26186;DHT22;20067;48.764;9.176;2023-07-02T00:04:12;18.80;91.30
26186;DHT22;20067;48.764;9.176;2023-07-02T00:06:44;18.70;91.30
26186;DHT22;20067;48.764;9.176;2023-07-02T00:09:10;18.50;91.30
26186;DHT22;20067;48.764;9.176;2023-07-02T00:11:40;18.40;91.30
26186;DHT22;20067;48.764;9.176;2023-07-02T00:14:07;18.40;91.30
26186;DHT22;20067;48.764;9.176;2023-07-02T00:16:34;18.50;91.30
26186;DHT22;20067;48.764;9.176;2023-07-02T00:19:00;18.60;91.30
26186;DHT22;20067;48.764;9.176;2023-07-02T00:21:26;18.40;91.30
26186;DHT22;20067;48.764;9.176;2023-07-02T00:23:56;18.40;91.30
26186;DHT22;20067;48.764;9.176;2023-07-02T00:26:26;18.60;91.30
26186;DHT22;20067;48.764;9.176;2023-07-02T00:28:54;18.60;91.30
26186;DHT22;20067;48.764;9.176;2023-07-02T00:31:20;18.50;91.30
26186;DHT22;20067;48.764;9.176;2023-07-02T00:33:46;18.50;91.30
26186;DHT22;20067;48.764;9.176;2023-07-02T00:36:13;18.50;91.30
26186;DHT22;20067;48.764;9.176;2023-07-02T00:38:41;18.40;91.30
26186;DHT22;20067;48.764;9.176;2023-07-02T00:41:08;18.50;91.30
26186;DHT22;20067;48.764;9.176;2023-07-02T00:43:34;18.50;91.30
26186;DHT22;20067;48.764;9.176;2023-07-02T00:45:59;18.50;91.30
26186;DHT22;20067;48.764;9.176;2023-07-02T00:48:25;18.50;91.30
26186;DHT22;20067;48.764;9.176;2023-07-02T00:50:51;18.40;91.30
26186;DHT22;20067;48.764;9.176;2023-07-02T00:53:16;18.50;91.30
26186;DHT22;20067;48.764;9.176;2023-07-02T00:55:42;18.60;91.30
26186;DHT22;20067;48.764;9.176;2023-07-02T00:58:08;18.80;91.30
26186;DHT22;20067;48.764;9.176;2023-07-02T01:00:35;18.90;91.30
26186;DHT22;20067;48.764;9.176;2023-07-02T01:03:01;18.70;91.30
26186;DHT22;20067;48.764;9.176;2023-07-02T01:05:30;18.70;91.30
26186;DHT22;20067;48.764;9.176;2023-07-02T01:08:03;18.70;91.30
26186;DHT22;20067;48.764;9.176;2023-07-02T01:10:29;18.60;91.30
26186;DHT22;20067;48.764;9.176;2023-07-02T01:12:57;18.60;91.30
26186;DHT22;20067;48.764;9.176;2023-07-02T01:15:24;18.50;91.30
26186;DHT22;20067;48.764;9.176;2023-07-02T01:17:51;18.50;91.30
26186;DHT22;20067;48.764;9.176;2023-07-02T01:20:18;18.50;91.30
26186;DHT22;20067;48.764;9.176;2023-07-02T01:22:47;18.50;91.30
26186;DHT22;20067;48.764;9.176;2023-07-02T01:25:15;18.50;91.30
26186;DHT22;20067;48.764;9.176;2023-07-02T01:27:41;18.30;91.30
26186;DHT22;20067;48.764;9.176;2023-07-02T01:30:08;18.50;91.30
26186;DHT22;20067;48.764;9.176;2023-07-02T01:32:34;18.60;91.30
26186;DHT22;20067;48.764;9.176;2023-07-02T01:35:00;18.60;91.30
26186;DHT22;20067;48.764;9.176;2023-07-02T01:37:26;18.60;91.30
26186;DHT22;20067;48.764;9.176;2023-07-02T01:39:52;18.50;91.30
26186;DHT22;20067;48.764;9.176;2023-07-02T01:42:18;18.30;91.30
26186;DHT22;20067;48.764;9.176;2023-07-02T01:44:45;18.20;91.30
26186;DHT22;20067;48.764;9.176;2023-07-02T01:47:11;18.20;91.30
26186;DHT22;20067;48.764;9.176;2023-07-02T01:49:37;18.20;91.30
26186;DHT22;20067;48.764;9.176;2023-07-02T01:52:04;18.10;91.30
26186;DHT22;20067;48.764;9.176;2023-07-02T01:54:30;18.20;91.30
26186;DHT22;20067;48.764;9.176;2023-07-02T01:56:57;18.20;91.30
26186;DHT22;20067;48.764;9.176;2023-07-02T01:59:23;18.40;91.30
26186;DHT22;20067;48.764;9.176;2023-07-02T02:01:49;18.40;91.30
26186;DHT22;20067;48.764;9.176;2023-07-02T02:04:15;18.30;91.30
26186;DHT22;20067;48.764;9.176;2023-07-02T02:06:41;18.20;91.30
26186;DHT22;20067;48.764;9.176;2023-07-02T02:09:08;18.10;91.30
26186;DHT22;20067;48.764;9.176;2023-07-02T02:11:36;18.10;91.30
26186;DHT22;20067;48.764;9.176;2023-07-02T02:14:02;18.00;91.30
26186;DHT22;20067;48.764;9.176;2023-07-02T02:16:28;18.10;91.30
26186;DHT22;20067;48.764;9.176;2023-07-02T02:18:54;18.20;91.30
26186;DHT22;20067;48.764;9.176;2023-07-02T02:21:20;18.10;91.30
26186;DHT22;20067;48.764;9.176;2023-07-02T02:23:46;18.00;91.30
26186;DHT22;20067;48.764;9.176;2023-07-02T02:26:12;18.10;91.30
26186;DHT22;20067;48.764;9.176;2023-07-02T02:28:37;18.10;91.30
26186;DHT22;20067;48.764;9.176;2023-07-02T02:31:03;18.10;91.30
26186;DHT22;20067;48.764;9.176;2023-07-02T02:33:29;17.90;91.30
26186;DHT22;20067;48.764;9.176;2023-07-02T02:35:55;18.20;91.30
26186;DHT22;20067;48.764;9.176;2023-07-02T02:38:21;18.40;91.30
26186;DHT22;20067;48.764;9.176;2023-07-02T02:40:46;18.70;91.30
26186;DHT22;20067;48.764;9.176;2023-07-02T02:43:12;18.90;91.30
26186;DHT22;20067;48.764;9.176;2023-07-02T02:45:38;18.60;91.30
26186;DHT22;20067;48.764;9.176;2023-07-02T02:48:04;18.20;91.30
26186;DHT22;20067;48.764;9.176;2023-07-02T02:50:30;18.20;91.30
26186;DHT22;20067;48.764;9.176;2023-07-02T02:52:56;18.20;91.30
26186;DHT22;20067;48.764;9.176;2023-07-02T02:55:21;18.40;91.30
26186;DHT22;20067;48.764;9.176;2023-07-02T02:57:47;18.40;91.30
26186;DHT22;20067;48.764;9.176;2023-07-02T03:00:13;18.20;91.30
26186;DHT22;20067;48.764;9.176;2023-07-02T03:02:38;18.20;91.30
26186;DHT22;20067;48.764;9.176;2023-07-02T03:05:05;17.90;91.30
26186;DHT22;20067;48.764;9.176;2023-07-02T03:07:32;18.00;91.30
26186;DHT22;20067;48.764;9.176;2023-07-02T03:09:58;18.20;91.30
26186;DHT22;20067;48.764;9.176;2023-07-02T03:12:25;18.20;91.30
26186;DHT22;20067;48.764;9.176;2023-07-02T03:14:51;18.20;91.30
26186;DHT22;20067;48.764;9.176;2023-07-02T03:17:20;18.30;91.30
26186;DHT22;20067;48.764;9.176;2023-07-02T03:19:46;18.10;91.30
26186;DHT22;20067;48.764;9.176;2023-07-02T03:22:12;18.10;91.30
26186;DHT22;20067;48.764;9.176;2023-07-02T03:24:38;18.20;91.30
26186;DHT22;20067;48.764;9.176;2023-07-02T03:27:04;18.10;91.30
26186;DHT22;20067;48.764;9.176;2023-07-02T03:29:29;18.10;91.30
26186;DHT22;20067;48.764;9.176;2023-07-02T03:31:55;18.20;91.30
26186;DHT22;20067;48.764;9.176;2023-07-02T03:34:21;18.20;91.30
26186;DHT22;20067;48.764;9.176;2023-07-02T03:36:48;17.90;91.30
26186;DHT22;20067;48.764;9.176;2023-07-02T03:39:13;17.50;91.30
26186;DHT22;20067;48.764;9.176;2023-07-02T03:41:39;17.30;91.30
26186;DHT22;20067;48.764;9.176;2023-07-02T03:44:05;16.90;91.30
26186;DHT22;20067;48.764;9.176;2023-07-02T03:46:31;17.20;91.30
26186;DHT22;20067;48.764;9.176;2023-07-02T03:48:56;17.50;91.30
26186;DHT22;20067;48.764;9.176;2023-07-02T03:51:22;17.70;91.30
26186;DHT22;20067;48.764;9.176;2023-07-02T03:53:48;17.80;91.30
26186;DHT22;20067;48.764;9.176;2023-07-02T03:56:14;17.80;91.30
26186;DHT22;20067;48.764;9.176;2023-07-02T03:58:40;17.80;91.30
26186;DHT22;20067;48.764;9.176;2023-07-02T04:01:05;17.60;91.30
26186;DHT22;20067;48.764;9.176;2023-07-02T04:03:32;17.70;91.30
26186;DHT22;20067;48.764;9.176;2023-07-02T04:05:58;17.70;91.30
26186;DHT22;20067;48.764;9.176;2023-07-02T04:08:23;17.60;91.30
26186;DHT22;20067;48.764;9.176;2023-07-02T04:10:54;17.60;91.30
26186;DHT22;20067;48.764;9.176;2023-07-02T04:13:19;17.70;91.30
26186;DHT22;20067;48.764;9.176;2023-07-02T04:15:45;17.80;91.30
26186;DHT22;20067;48.764;9.176;2023-07-02T04:18:11;17.70;91.30
26186;DHT22;20067;48.764;9.176;2023-07-02T04:20:36;17.50;91.30
26186;DHT22;20067;48.764;9.176;2023-07-02T04:23:06;17.40;91.30
26186;DHT22;20067;48.764;9.176;2023-07-02T04:25:31;17.20;91.30
26186;DHT22;20067;48.764;9.176;2023-07-02T04:27:57;17.40;91.30
26186;DHT22;20067;48.764;9.176;2023-07-02T04:30:24;17.60;91.30
26186;DHT22;20067;48.764;9.176;2023-07-02T04:32:53;17.20;91.30
26186;DHT22;20067;48.764;9.176;2023-07-02T04:35:19;17.30;91.30
26186;DHT22;20067;48.764;9.176;2023-07-02T04:37:45;17.60;91.30
26186;DHT22;20067;48.764;9.176;2023-07-02T04:40:10;17.70;91.30
26186;DHT22;20067;48.764;9.176;2023-07-02T04:42:37;17.70;91.30
26186;DHT22;20067;48.764;9.176;2023-07-02T04:45:06;17.40;91.30
26186;DHT22;20067;48.764;9.176;2023-07-02T04:47:36;17.30;91.30
26186;DHT22;20067;48.764;9.176;2023-07-02T04:50:02;17.20;91.30
26186;DHT22;20067;48.764;9.176;2023-07-02T04:52:27;17.20;91.30
26186;DHT22;20067;48.764;9.176;2023-07-02T04:54:53;17.20;91.30
26186;DHT22;20067;48.764;9.176;2023-07-02T04:57:18;17.40;91.30
26186;DHT22;20067;48.764;9.176;2023-07-02T04:59:44;17.20;91.30
26186;DHT22;20067;48.764;9.176;2023-07-02T05:02:10;17.10;91.30
26186;DHT22;20067;48.764;9.176;2023-07-02T05:04:36;17.20;91.30
26186;DHT22;20067;48.764;9.176;2023-07-02T05:07:05;17.20;91.30
26186;DHT22;20067;48.764;9.176;2023-07-02T05:09:31;17.20;91.30
26186;DHT22;20067;48.764;9.176;2023-07-02T05:11:57;17.30;91.30
26186;DHT22;20067;48.764;9.176;2023-07-02T05:14:23;17.40;91.30
26186;DHT22;20067;48.764;9.176;2023-07-02T05:16:49;17.50;91.30
26186;DHT22;20067;48.764;9.176;2023-07-02T05:19:15;17.60;91.30
26186;DHT22;20067;48.764;9.176;2023-07-02T05:21:41;17.50;91.30
26186;DHT22;20067;48.764;9.176;2023-07-02T05:24:08;17.70;91.30
26186;DHT22;20067;48.764;9.176;2023-07-02T05:26:33;17.70;91.30
26186;DHT22;20067;48.764;9.176;2023-07-02T05:28:59;17.70;91.30
26186;DHT22;20067;48.764;9.176;2023-07-02T05:31:24;17.80;91.30
26186;DHT22;20067;48.764;9.176;2023-07-02T05:33:50;17.80;91.30
26186;DHT22;20067;48.764;9.176;2023-07-02T05:36:15;17.80;91.30
26186;DHT22;20067;48.764;9.176;2023-07-02T05:38:41;17.90;91.30
26186;DHT22;20067;48.764;9.176;2023-07-02T05:41:07;17.80;91.30
26186;DHT22;20067;48.764;9.176;2023-07-02T05:43:32;17.80;91.30
26186;DHT22;20067;48.764;9.176;2023-07-02T05:45:59;17.90;91.30
26186;DHT22;20067;48.764;9.176;2023-07-02T05:48:26;17.80;91.30
26186;DHT22;20067;48.764;9.176;2023-07-02T05:50:52;17.70;91.30
26186;DHT22;20067;48.764;9.176;2023-07-02T05:53:17;17.70;91.30
26186;DHT22;20067;48.764;9.176;2023-07-02T05:55:43;17.80;91.30
26186;DHT22;20067;48.764;9.176;2023-07-02T05:58:08;17.80;91.30
26186;DHT22;20067;48.764;9.176;2023-07-02T06:00:34;17.80;91.30
26186;DHT22;20067;48.764;9.176;2023-07-02T06:03:00;17.80;91.30
26186;DHT22;20067;48.764;9.176;2023-07-02T06:05:26;17.90;91.30
26186;DHT22;20067;48.764;9.176;2023-07-02T06:07:52;18.00;91.30
26186;DHT22;20067;48.764;9.176;2023-07-02T06:10:17;18.00;91.30
26186;DHT22;20067;48.764;9.176;2023-07-02T06:12:43;17.90;91.30
26186;DHT22;20067;48.764;9.176;2023-07-02T06:15:10;18.00;91.30
26186;DHT22;20067;48.764;9.176;2023-07-02T06:17:36;18.30;91.30
26186;DHT22;20067;48.764;9.176;2023-07-02T06:20:06;18.40;91.30
26186;DHT22;20067;48.764;9.176;2023-07-02T06:22:31;18.50;91.20
26186;DHT22;20067;48.764;9.176;2023-07-02T06:24:57;18.50;91.00
26186;DHT22;20067;48.764;9.176;2023-07-02T06:27:23;18.50;90.80
26186;DHT22;20067;48.764;9.176;2023-07-02T06:29:48;18.60;90.60
26186;DHT22;20067;48.764;9.176;2023-07-02T06:32:15;18.50;87.90
26186;DHT22;20067;48.764;9.176;2023-07-02T06:34:41;18.50;88.20
26186;DHT22;20067;48.764;9.176;2023-07-02T06:37:07;18.70;88.10
26186;DHT22;20067;48.764;9.176;2023-07-02T06:39:32;18.90;87.40
26186;DHT22;20067;48.764;9.176;2023-07-02T06:41:58;19.10;86.50
26186;DHT22;20067;48.764;9.176;2023-07-02T06:44:23;19.30;86.90
26186;DHT22;20067;48.764;9.176;2023-07-02T06:46:49;19.40;85.70
26186;DHT22;20067;48.764;9.176;2023-07-02T06:49:14;19.40;85.60
26186;DHT22;20067;48.764;9.176;2023-07-02T06:51:40;19.30;85.50
26186;DHT22;20067;48.764;9.176;2023-07-02T06:54:07;19.50;85.20
26186;DHT22;20067;48.764;9.176;2023-07-02T06:56:32;19.50;84.80
26186;DHT22;20067;48.764;9.176;2023-07-02T06:58:59;19.20;86.60
26186;DHT22;20067;48.764;9.176;2023-07-02T07:01:25;19.40;85.60
26186;DHT22;20067;48.764;9.176;2023-07-02T07:03:51;19.70;85.60
26186;DHT22;20067;48.764;9.176;2023-07-02T07:06:16;19.80;84.80
26186;DHT22;20067;48.764;9.176;2023-07-02T07:08:42;19.70;84.30
26186;DHT22;20067;48.764;9.176;2023-07-02T07:11:08;19.80;85.10
26186;DHT22;20067;48.764;9.176;2023-07-02T07:13:33;19.70;84.60
26186;DHT22;20067;48.764;9.176;2023-07-02T07:15:59;19.60;84.20
26186;DHT22;20067;48.764;9.176;2023-07-02T07:18:25;19.80;84.70
26186;DHT22;20067;48.764;9.176;2023-07-02T07:20:50;19.80;82.10
26186;DHT22;20067;48.764;9.176;2023-07-02T07:23:18;19.90;82.60
26186;DHT22;20067;48.764;9.176;2023-07-02T07:25:44;19.90;83.40
26186;DHT22;20067;48.764;9.176;2023-07-02T07:28:09;20.00;83.30
26186;DHT22;20067;48.764;9.176;2023-07-02T07:30:41;19.80;81.90
26186;DHT22;20067;48.764;9.176;2023-07-02T07:33:07;19.90;81.80
26186;DHT22;20067;48.764;9.176;2023-07-02T07:35:32;20.10;80.90
26186;DHT22;20067;48.764;9.176;2023-07-02T07:37:58;20.30;79.00
26186;DHT22;20067;48.764;9.176;2023-07-02T07:40:24;20.10;78.40
26186;DHT22;20067;48.764;9.176;2023-07-02T07:42:49;20.00;79.20
26186;DHT22;20067;48.764;9.176;2023-07-02T07:45:15;19.90;78.60
26186;DHT22;20067;48.764;9.176;2023-07-02T07:47:40;19.80;79.30
26186;DHT22;20067;48.764;9.176;2023-07-02T07:50:07;20.10;80.30
26186;DHT22;20067;48.764;9.176;2023-07-02T07:52:44;20.50;80.20
26186;DHT22;20067;48.764;9.176;2023-07-02T07:55:10;20.60;78.00
26186;DHT22;20067;48.764;9.176;2023-07-02T07:57:37;20.70;77.50
26186;DHT22;20067;48.764;9.176;2023-07-02T08:00:06;20.70;76.50
26186;DHT22;20067;48.764;9.176;2023-07-02T08:02:38;20.90;77.50
26186;DHT22;20067;48.764;9.176;2023-07-02T08:05:04;20.90;77.70
26186;DHT22;20067;48.764;9.176;2023-07-02T08:07:33;20.90;77.00
26186;DHT22;20067;48.764;9.176;2023-07-02T08:09:59;21.10;76.10
26186;DHT22;20067;48.764;9.176;2023-07-02T08:12:25;21.10;75.90
26186;DHT22;20067;48.764;9.176;2023-07-02T08:14:57;20.70;75.90
26186;DHT22;20067;48.764;9.176;2023-07-02T08:17:23;20.70;77.10
26186;DHT22;20067;48.764;9.176;2023-07-02T08:19:49;21.20;76.40
26186;DHT22;20067;48.764;9.176;2023-07-02T08:22:14;21.80;74.70
26186;DHT22;20067;48.764;9.176;2023-07-02T08:24:40;22.00;73.00
26186;DHT22;20067;48.764;9.176;2023-07-02T08:27:06;21.90;73.80
26186;DHT22;20067;48.764;9.176;2023-07-02T08:29:32;22.60;72.30
26186;DHT22;20067;48.764;9.176;2023-07-02T08:31:58;22.60;70.80
26186;DHT22;20067;48.764;9.176;2023-07-02T08:34:24;22.10;73.70
26186;DHT22;20067;48.764;9.176;2023-07-02T08:36:50;21.90;74.70
26186;DHT22;20067;48.764;9.176;2023-07-02T08:39:17;22.40;72.20
26186;DHT22;20067;48.764;9.176;2023-07-02T08:41:46;22.70;71.30
26186;DHT22;20067;48.764;9.176;2023-07-02T08:44:13;22.50;71.70
26186;DHT22;20067;48.764;9.176;2023-07-02T08:46:42;22.20;71.50
26186;DHT22;20067;48.764;9.176;2023-07-02T08:49:08;22.80;70.80
26186;DHT22;20067;48.764;9.176;2023-07-02T08:51:34;22.60;70.60
26186;DHT22;20067;48.764;9.176;2023-07-02T08:54:03;23.00;70.20
26186;DHT22;20067;48.764;9.176;2023-07-02T08:56:29;22.90;69.50
26186;DHT22;20067;48.764;9.176;2023-07-02T08:58:55;22.90;70.10
26186;DHT22;20067;48.764;9.176;2023-07-02T09:01:21;22.80;69.10
26186;DHT22;20067;48.764;9.176;2023-07-02T09:03:47;22.70;68.40
26186;DHT22;20067;48.764;9.176;2023-07-02T09:06:12;22.80;66.70
26186;DHT22;20067;48.764;9.176;2023-07-02T09:08:39;22.90;68.20
26186;DHT22;20067;48.764;9.176;2023-07-02T09:11:15;23.40;67.40
26186;DHT22;20067;48.764;9.176;2023-07-02T09:13:51;23.20;67.00
26186;DHT22;20067;48.764;9.176;2023-07-02T09:19:07;23.40;66.20
26186;DHT22;20067;48.764;9.176;2023-07-02T09:21:46;23.10;65.90
26186;DHT22;20067;48.764;9.176;2023-07-02T09:24:22;22.70;66.70
26186;DHT22;20067;48.764;9.176;2023-07-02T09:26:50;22.70;67.80
26186;DHT22;20067;48.764;9.176;2023-07-02T09:31:54;23.00;67.30
26186;DHT22;20067;48.764;9.176;2023-07-02T09:34:33;23.30;66.90
26186;DHT22;20067;48.764;9.176;2023-07-02T09:37:00;23.50;66.90
26186;DHT22;20067;48.764;9.176;2023-07-02T09:39:34;23.40;65.90
26186;DHT22;20067;48.764;9.176;2023-07-02T09:42:01;23.60;65.50
26186;DHT22;20067;48.764;9.176;2023-07-02T09:44:31;24.50;64.70
26186;DHT22;20067;48.764;9.176;2023-07-02T09:47:08;24.50;64.30
26186;DHT22;20067;48.764;9.176;2023-07-02T09:49:49;25.20;62.00
26186;DHT22;20067;48.764;9.176;2023-07-02T09:52:16;25.00;61.50
26186;DHT22;20067;48.764;9.176;2023-07-02T09:54:42;24.90;63.80
26186;DHT22;20067;48.764;9.176;2023-07-02T09:57:08;25.00;61.90
26186;DHT22;20067;48.764;9.176;2023-07-02T09:59:34;24.60;63.00
26186;DHT22;20067;48.764;9.176;2023-07-02T10:01:59;24.30;64.60
26186;DHT22;20067;48.764;9.176;2023-07-02T10:04:39;24.50;63.60
26186;DHT22;20067;48.764;9.176;2023-07-02T10:07:05;24.90;64.10
26186;DHT22;20067;48.764;9.176;2023-07-02T10:09:36;25.20;63.00
26186;DHT22;20067;48.764;9.176;2023-07-02T10:12:14;24.80;63.60
26186;DHT22;20067;48.764;9.176;2023-07-02T10:14:44;24.50;63.90
26186;DHT22;20067;48.764;9.176;2023-07-02T10:17:10;24.10;66.30
26186;DHT22;20067;48.764;9.176;2023-07-02T10:19:36;24.10;66.50
26186;DHT22;20067;48.764;9.176;2023-07-02T10:22:02;24.30;64.80
26186;DHT22;20067;48.764;9.176;2023-07-02T10:24:29;24.50;64.20
26186;DHT22;20067;48.764;9.176;2023-07-02T10:26:56;24.70;62.90
26186;DHT22;20067;48.764;9.176;2023-07-02T10:29:26;24.80;63.80
26186;DHT22;20067;48.764;9.176;2023-07-02T10:31:54;25.30;61.60
26186;DHT22;20067;48.764;9.176;2023-07-02T10:34:34;25.20;61.60
26186;DHT22;20067;48.764;9.176;2023-07-02T10:37:00;24.80;62.10
26186;DHT22;20067;48.764;9.176;2023-07-02T10:39:28;24.50;63.00
26186;DHT22;20067;48.764;9.176;2023-07-02T10:42:07;24.80;62.60
26186;DHT22;20067;48.764;9.176;2023-07-02T10:44:34;25.30;62.20
26186;DHT22;20067;48.764;9.176;2023-07-02T10:46:59;25.60;61.00
26186;DHT22;20067;48.764;9.176;2023-07-02T10:49:32;25.70;60.50
26186;DHT22;20067;48.764;9.176;2023-07-02T10:52:02;25.80;61.10
26186;DHT22;20067;48.764;9.176;2023-07-02T10:54:42;25.70;60.10
26186;DHT22;20067;48.764;9.176;2023-07-02T10:57:10;24.90;61.90
26186;DHT22;20067;48.764;9.176;2023-07-02T10:59:37;24.80;62.60
26186;DHT22;20067;48.764;9.176;2023-07-02T11:02:02;24.50;63.90
26186;DHT22;20067;48.764;9.176;2023-07-02T11:04:32;24.40;63.20
26186;DHT22;20067;48.764;9.176;2023-07-02T11:06:57;24.50;63.30
26186;DHT22;20067;48.764;9.176;2023-07-02T11:09:23;24.90;62.00
26186;DHT22;20067;48.764;9.176;2023-07-02T11:11:56;24.80;61.20
26186;DHT22;20067;48.764;9.176;2023-07-02T11:14:36;24.60;63.90
26186;DHT22;20067;48.764;9.176;2023-07-02T11:17:06;26.60;58.70
26186;DHT22;20067;48.764;9.176;2023-07-02T11:19:35;26.30;57.40
26186;DHT22;20067;48.764;9.176;2023-07-02T11:22:01;25.40;59.80
26186;DHT22;20067;48.764;9.176;2023-07-02T11:24:29;24.60;60.40
26186;DHT22;20067;48.764;9.176;2023-07-02T11:26:55;24.10;61.90
26186;DHT22;20067;48.764;9.176;2023-07-02T11:29:22;23.90;62.90
26186;DHT22;20067;48.764;9.176;2023-07-02T11:31:47;24.30;62.70
26186;DHT22;20067;48.764;9.176;2023-07-02T11:36:39;24.80;61.40
26186;DHT22;20067;48.764;9.176;2023-07-02T11:39:04;25.90;58.80
26186;DHT22;20067;48.764;9.176;2023-07-02T11:41:37;27.20;56.80
26186;DHT22;20067;48.764;9.176;2023-07-02T11:44:03;28.20;54.70
26186;DHT22;20067;48.764;9.176;2023-07-02T11:46:29;29.00;51.90
26186;DHT22;20067;48.764;9.176;2023-07-02T11:48:54;30.80;50.30
26186;DHT22;20067;48.764;9.176;2023-07-02T11:51:21;31.40;48.40
26186;DHT22;20067;48.764;9.176;2023-07-02T11:53:47;30.20;49.10
26186;DHT22;20067;48.764;9.176;2023-07-02T11:56:12;30.10;49.10
26186;DHT22;20067;48.764;9.176;2023-07-02T11:58:39;27.80;51.50
26186;DHT22;20067;48.764;9.176;2023-07-02T12:01:05;26.60;54.50
26186;DHT22;20067;48.764;9.176;2023-07-02T12:03:30;25.70;56.20
26186;DHT22;20067;48.764;9.176;2023-07-02T12:05:56;24.60;58.90
26186;DHT22;20067;48.764;9.176;2023-07-02T12:08:22;25.70;57.30
26186;DHT22;20067;48.764;9.176;2023-07-02T12:10:48;26.20;55.60
26186;DHT22;20067;48.764;9.176;2023-07-02T12:13:14;26.80;54.30
26186;DHT22;20067;48.764;9.176;2023-07-02T12:15:40;27.30;54.40
26186;DHT22;20067;48.764;9.176;2023-07-02T12:18:06;26.80;54.30
26186;DHT22;20067;48.764;9.176;2023-07-02T12:20:31;28.70;51.50
26186;DHT22;20067;48.764;9.176;2023-07-02T12:22:57;30.00;48.80
26186;DHT22;20067;48.764;9.176;2023-07-02T12:25:23;28.90;51.10
26186;DHT22;20067;48.764;9.176;2023-07-02T12:27:49;28.30;51.60
26186;DHT22;20067;48.764;9.176;2023-07-02T12:30:14;29.30;50.70
26186;DHT22;20067;48.764;9.176;2023-07-02T12:32:44;29.60;49.00
26186;DHT22;20067;48.764;9.176;2023-07-02T12:35:10;30.60;48.40
26186;DHT22;20067;48.764;9.176;2023-07-02T12:37:46;30.10;49.60
26186;DHT22;20067;48.764;9.176;2023-07-02T12:40:12;29.80;49.60
26186;DHT22;20067;48.764;9.176;2023-07-02T12:42:40;30.40;48.10
26186;DHT22;20067;48.764;9.176;2023-07-02T12:45:06;29.90;46.70
26186;DHT22;20067;48.764;9.176;2023-07-02T12:47:32;31.30;45.50
26186;DHT22;20067;48.764;9.176;2023-07-02T12:49:57;31.00;45.20
26186;DHT22;20067;48.764;9.176;2023-07-02T12:52:23;31.60;44.80
26186;DHT22;20067;48.764;9.176;2023-07-02T12:54:48;31.90;44.80
26186;DHT22;20067;48.764;9.176;2023-07-02T12:57:14;32.90;43.90
26186;DHT22;20067;48.764;9.176;2023-07-02T12:59:40;32.50;43.80
26186;DHT22;20067;48.764;9.176;2023-07-02T13:02:06;32.20;45.20
26186;DHT22;20067;48.764;9.176;2023-07-02T13:04:32;32.70;43.50
26186;DHT22;20067;48.764;9.176;2023-07-02T13:06:57;33.00;42.40
26186;DHT22;20067;48.764;9.176;2023-07-02T13:09:23;32.10;44.10
26186;DHT22;20067;48.764;9.176;2023-07-02T13:11:48;32.50;43.40
26186;DHT22;20067;48.764;9.176;2023-07-02T13:14:14;33.70;42.50
26186;DHT22;20067;48.764;9.176;2023-07-02T13:16:40;34.30;41.80
26186;DHT22;20067;48.764;9.176;2023-07-02T13:19:05;34.20;40.50
26186;DHT22;20067;48.764;9.176;2023-07-02T13:21:31;34.10;40.70
26186;DHT22;20067;48.764;9.176;2023-07-02T13:23:56;34.30;41.10
26186;DHT22;20067;48.764;9.176;2023-07-02T13:26:22;34.80;40.80
26186;DHT22;20067;48.764;9.176;2023-07-02T13:28:48;34.80;39.60
26186;DHT22;20067;48.764;9.176;2023-07-02T13:31:14;33.90;41.00
26186;DHT22;20067;48.764;9.176;2023-07-02T13:33:40;34.60;42.10
26186;DHT22;20067;48.764;9.176;2023-07-02T13:36:06;35.20;39.30
26186;DHT22;20067;48.764;9.176;2023-07-02T13:38:32;34.90;41.10
26186;DHT22;20067;48.764;9.176;2023-07-02T13:40:58;33.70;40.30
26186;DHT22;20067;48.764;9.176;2023-07-02T13:43:23;34.10;41.20
26186;DHT22;20067;48.764;9.176;2023-07-02T13:45:49;34.90;38.80
26186;DHT22;20067;48.764;9.176;2023-07-02T13:48:15;34.40;40.00
26186;DHT22;20067;48.764;9.176;2023-07-02T13:50:40;33.70;40.30
26186;DHT22;20067;48.764;9.176;2023-07-02T13:53:07;33.70;40.20
26186;DHT22;20067;48.764;9.176;2023-07-02T13:55:33;33.30;41.50
26186;DHT22;20067;48.764;9.176;2023-07-02T13:57:59;33.10;40.70
26186;DHT22;20067;48.764;9.176;2023-07-02T14:00:28;33.90;39.80
26186;DHT22;20067;48.764;9.176;2023-07-02T14:02:54;34.10;41.90
26186;DHT22;20067;48.764;9.176;2023-07-02T14:05:20;35.20;40.10
26186;DHT22;20067;48.764;9.176;2023-07-02T14:07:45;34.10;39.20
26186;DHT22;20067;48.764;9.176;2023-07-02T14:10:12;33.00;40.70
26186;DHT22;20067;48.764;9.176;2023-07-02T14:12:38;33.40;41.70
26186;DHT22;20067;48.764;9.176;2023-07-02T14:15:04;32.20;41.60
26186;DHT22;20067;48.764;9.176;2023-07-02T14:17:30;31.80;42.80
26186;DHT22;20067;48.764;9.176;2023-07-02T14:19:56;32.80;42.10
26186;DHT22;20067;48.764;9.176;2023-07-02T14:22:21;34.20;40.90
26186;DHT22;20067;48.764;9.176;2023-07-02T14:24:47;33.10;42.00
26186;DHT22;20067;48.764;9.176;2023-07-02T14:27:12;32.20;44.40
26186;DHT22;20067;48.764;9.176;2023-07-02T14:29:38;32.20;43.40
26186;DHT22;20067;48.764;9.176;2023-07-02T14:32:04;32.00;43.70
26186;DHT22;20067;48.764;9.176;2023-07-02T14:34:30;30.80;44.40
26186;DHT22;20067;48.764;9.176;2023-07-02T14:36:57;30.50;44.60
26186;DHT22;20067;48.764;9.176;2023-07-02T14:39:23;30.00;47.30
26186;DHT22;20067;48.764;9.176;2023-07-02T14:41:49;30.00;46.20
26186;DHT22;20067;48.764;9.176;2023-07-02T14:44:14;29.00;47.30
26186;DHT22;20067;48.764;9.176;2023-07-02T14:46:41;29.00;47.60
26186;DHT22;20067;48.764;9.176;2023-07-02T14:49:08;28.80;47.40
26186;DHT22;20067;48.764;9.176;2023-07-02T14:51:34;28.70;47.00
26186;DHT22;20067;48.764;9.176;2023-07-02T14:53:59;28.10;48.10
26186;DHT22;20067;48.764;9.176;2023-07-02T14:56:26;28.30;48.80
26186;DHT22;20067;48.764;9.176;2023-07-02T14:58:52;28.10;47.90
26186;DHT22;20067;48.764;9.176;2023-07-02T15:01:18;28.30;50.40
26186;DHT22;20067;48.764;9.176;2023-07-02T15:03:44;28.80;47.90
26186;DHT22;20067;48.764;9.176;2023-07-02T15:06:14;29.30;47.50
26186;DHT22;20067;48.764;9.176;2023-07-02T15:08:40;28.80;46.80
26186;DHT22;20067;48.764;9.176;2023-07-02T15:11:07;28.50;48.70
26186;DHT22;20067;48.764;9.176;2023-07-02T15:13:33;28.10;49.50
26186;DHT22;20067;48.764;9.176;2023-07-02T15:15:59;28.50;49.70
26186;DHT22;20067;48.764;9.176;2023-07-02T15:18:26;28.30;49.00
26186;DHT22;20067;48.764;9.176;2023-07-02T15:20:52;28.30;49.90
26186;DHT22;20067;48.764;9.176;2023-07-02T15:23:23;28.40;48.50
26186;DHT22;20067;48.764;9.176;2023-07-02T15:25:57;28.00;49.90
26186;DHT22;20067;48.764;9.176;2023-07-02T15:28:24;28.10;49.40
26186;DHT22;20067;48.764;9.176;2023-07-02T15:30:54;28.10;50.10
26186;DHT22;20067;48.764;9.176;2023-07-02T15:33:20;28.00;50.20
26186;DHT22;20067;48.764;9.176;2023-07-02T15:35:46;28.10;50.00